Time;durP1;ratioP1;P1;durP2;ratioP2;P2;SDS_P1;SDS_P2;PMS_P1;PMS_P2;Temp;Humidity;BMP_temperature;BMP_pressure;BME280_temperature;BME280_humidity;BME280_pressure;Samples;Min_cycle;Max_cycle;Signal;HPM_P1;HPM_P2
2024/02/05 06:02:20;;;;;;;1.40;1.33;;;;;;;;;;5428332;23;20479;-76
2024/02/05 06:04:46;;;;;;;2.70;1.10;;;;;;;;;;4974860;28;20486;-76
2024/02/05 06:07:12;;;;;;;2.03;1.30;;;;;;;;;;4975357;28;20415;-74
2024/02/05 06:09:38;;;;;;;2.60;1.10;;;;;;;;;;4975993;28;20415;-71
2024/02/05 06:12:04;;;;;;;1.07;1.00;;;;;;;;;;4989948;28;20438;-72
2024/02/05 06:14:31;;;;;;;2.47;1.30;;;;;;;;;;5016408;23;21012;-76
2024/02/05 06:16:58;;;;;;;2.20;1.53;;;;;;;;;;4993359;28;20530;-76
2024/02/05 06:19:24;;;;;;;4.13;1.20;;;;;;;;;;4989131;28;20530;-79
2024/02/05 06:21:50;;;;;;;3.43;1.70;;;;;;;;;;4977072;28;20416;-75
2024/02/05 06:24:16;;;;;;;1.43;1.13;;;;;;;;;;4984502;28;20749;-74
2024/02/05 06:26:42;;;;;;;1.10;1.00;;;;;;;;;;4965969;28;20434;-74
2024/02/05 06:29:08;;;;;;;2.57;1.80;;;;;;;;;;4964402;28;20436;-75
2024/02/05 06:31:34;;;;;;;1.07;0.90;;;;;;;;;;4973575;28;20446;-77
2024/02/05 06:34:00;;;;;;;1.70;1.13;;;;;;;;;;4959784;28;20439;-75
2024/02/05 06:36:26;;;;;;;3.27;1.30;;;;;;;;;;4963017;28;20417;-76
2024/02/05 06:38:52;;;;;;;2.70;1.20;;;;;;;;;;4984629;28;20459;-74
2024/02/05 06:41:18;;;;;;;1.57;1.10;;;;;;;;;;4974965;28;20436;-74
2024/02/05 06:43:46;;;;;;;0.87;0.83;;;;;;;;;;4973610;28;20467;-77
2024/02/05 06:46:12;;;;;;;1.77;1.20;;;;;;;;;;4976923;28;20404;-75
2024/02/05 06:48:38;;;;;;;4.30;1.10;;;;;;;;;;4959539;28;20425;-76
2024/02/05 06:51:04;;;;;;;1.40;1.30;;;;;;;;;;4958675;28;20420;-75
2024/02/05 06:53:31;;;;;;;4.27;1.70;;;;;;;;;;4956811;29;20916;-75
2024/02/05 06:55:57;;;;;;;10.20;1.67;;;;;;;;;;4956937;28;20413;-75
2024/02/05 06:58:22;;;;;;;1.77;1.40;;;;;;;;;;4955605;29;20413;-76
2024/02/05 07:00:48;;;;;;;2.00;1.47;;;;;;;;;;4956392;29;20963;-75
2024/02/05 07:03:14;;;;;;;1.10;1.00;;;;;;;;;;4967453;29;20500;-75
2024/02/05 07:05:40;;;;;;;2.70;1.57;;;;;;;;;;4959149;29;20499;-76
2024/02/05 07:08:06;;;;;;;1.47;1.30;;;;;;;;;;4960288;29;20425;-76
2024/02/05 07:10:32;;;;;;;2.70;1.60;;;;;;;;;;4961195;29;20828;-75
2024/02/05 07:12:59;;;;;;;5.97;1.50;;;;;;;;;;4956508;29;20412;-76
2024/02/05 07:15:25;;;;;;;2.77;1.37;;;;;;;;;;4954843;29;20967;-75
2024/02/05 07:17:51;;;;;;;2.10;1.90;;;;;;;;;;4955859;29;20499;-75
2024/02/05 07:20:17;;;;;;;9.23;1.80;;;;;;;;;;4955152;28;20468;-75
2024/02/05 07:22:43;;;;;;;3.07;1.60;;;;;;;;;;4955439;29;20416;-75
2024/02/05 07:25:09;;;;;;;3.00;1.33;;;;;;;;;;4955015;29;20440;-75
2024/02/05 07:27:37;;;;;;;2.77;1.90;;;;;;;;;;4954154;29;20429;-76
2024/02/05 07:30:03;;;;;;;2.70;1.60;;;;;;;;;;4955425;28;20421;-75
2024/02/05 07:32:29;;;;;;;2.80;1.63;;;;;;;;;;4955408;29;20495;-75
2024/02/05 07:34:55;;;;;;;7.93;1.70;;;;;;;;;;4953875;29;20940;-74
2024/02/05 07:37:21;;;;;;;3.10;1.40;;;;;;;;;;4962457;29;20440;-75
2024/02/05 07:39:47;;;;;;;2.30;1.47;;;;;;;;;;4959836;29;20456;-75
2024/02/05 07:42:13;;;;;;;1.67;1.60;;;;;;;;;;4956358;29;20405;-75
2024/02/05 07:44:39;;;;;;;3.80;1.27;;;;;;;;;;4955846;29;20958;-75
2024/02/05 07:47:05;;;;;;;4.53;1.43;;;;;;;;;;4955655;29;20492;-75
2024/02/05 07:49:31;;;;;;;3.60;1.63;;;;;;;;;;4955042;29;20423;-76
2024/02/05 07:51:57;;;;;;;1.90;1.50;;;;;;;;;;4955195;29;20416;-76
2024/02/05 07:54:27;;;;;;;2.27;1.23;;;;;;;;;;4956345;28;20519;-76
2024/02/05 07:56:54;;;;;;;2.73;1.27;;;;;;;;;;4961130;28;20425;-75
2024/02/05 07:59:20;;;;;;;7.60;1.77;;;;;;;;;;4959607;29;20457;-75
2024/02/05 08:01:46;;;;;;;3.13;1.70;;;;;;;;;;4961374;29;20817;-76
2024/02/05 08:04:12;;;;;;;8.10;1.80;;;;;;;;;;4960210;29;20871;-76
2024/02/05 08:06:38;;;;;;;2.07;1.70;;;;;;;;;;4961006;29;20427;-76
2024/02/05 08:09:04;;;;;;;2.53;1.60;;;;;;;;;;4958648;29;20472;-76
2024/02/05 08:11:31;;;;;;;1.73;1.30;;;;;;;;;;4958711;29;20413;-76
2024/02/05 08:13:57;;;;;;;2.70;1.70;;;;;;;;;;4958430;29;20808;-75
2024/02/05 08:16:23;;;;;;;3.90;1.80;;;;;;;;;;4960061;29;20479;-75
2024/02/05 08:18:49;;;;;;;6.70;1.93;;;;;;;;;;4959660;29;20827;-76
2024/02/05 08:21:15;;;;;;;9.60;3.10;;;;;;;;;;4958544;29;20417;-75
2024/02/05 08:23:41;;;;;;;2.20;1.30;;;;;;;;;;4958335;28;20412;-75
2024/02/05 08:26:07;;;;;;;3.40;1.80;;;;;;;;;;4958360;29;20416;-75
2024/02/05 08:28:34;;;;;;;5.90;1.33;;;;;;;;;;4957953;29;20408;-75
2024/02/05 08:31:00;;;;;;;2.03;1.40;;;;;;;;;;4958512;28;20789;-75
2024/02/05 08:33:26;;;;;;;3.20;1.30;;;;;;;;;;4956882;29;20424;-75
2024/02/05 08:35:52;;;;;;;1.40;1.27;;;;;;;;;;4958458;29;20912;-75
2024/02/05 08:38:18;;;;;;;1.33;1.27;;;;;;;;;;4956741;29;20424;-75
2024/02/05 08:40:44;;;;;;;1.17;1.10;;;;;;;;;;4961722;29;20460;-74
2024/02/05 08:43:10;;;;;;;7.83;1.30;;;;;;;;;;4966901;29;20423;-75
2024/02/05 08:45:36;;;;;;;2.60;1.10;;;;;;;;;;4966619;29;20452;-76
2024/02/05 08:48:02;;;;;;;1.10;1.10;;;;;;;;;;4958298;29;20825;-75
2024/02/05 08:50:33;;;;;;;2.60;1.30;;;;;;;;;;4957491;29;20448;-76
2024/02/05 08:52:59;;;;;;;1.03;1.00;;;;;;;;;;4957541;28;20424;-75
2024/02/05 08:55:25;;;;;;;1.70;1.40;;;;;;;;;;4956262;29;20495;-75
2024/02/05 08:57:51;;;;;;;1.80;1.60;;;;;;;;;;4957545;29;20416;-76
2024/02/05 09:00:19;;;;;;;2.13;1.27;;;;;;;;;;4955913;29;20506;-75
2024/02/05 09:02:45;;;;;;;3.70;1.10;;;;;;;;;;4957824;28;20413;-75
2024/02/05 09:05:11;;;;;;;1.73;1.40;;;;;;;;;;4957584;28;20891;-75
2024/02/05 09:07:37;;;;;;;3.97;1.87;;;;;;;;;;4957242;28;20820;-75
2024/02/05 09:10:03;;;;;;;6.10;1.70;;;;;;;;;;4957091;29;20783;-76
2024/02/05 09:12:29;;;;;;;3.47;1.73;;;;;;;;;;4957206;29;20416;-75
2024/02/05 09:14:55;;;;;;;1.63;1.30;;;;;;;;;;4957031;29;20516;-76
2024/02/05 09:17:21;;;;;;;4.03;1.13;;;;;;;;;;4957306;29;20896;-75
2024/02/05 09:19:47;;;;;;;2.30;1.60;;;;;;;;;;4955907;29;20972;-75
2024/02/05 09:22:13;;;;;;;1.30;1.20;;;;;;;;;;4957322;29;20735;-75
2024/02/05 09:24:39;;;;;;;6.13;1.67;;;;;;;;;;4957354;28;20429;-75
2024/02/05 09:27:05;;;;;;;3.27;1.57;;;;;;;;;;4957259;29;20500;-76
2024/02/05 09:29:32;;;;;;;1.90;1.37;;;;;;;;;;4956882;29;20767;-75
2024/02/05 09:31:58;;;;;;;5.70;1.57;;;;;;;;;;4957119;29;20430;-75
2024/02/05 09:34:24;;;;;;;1.70;1.43;;;;;;;;;;4955622;29;20472;-75
2024/02/05 09:36:50;;;;;;;1.27;1.20;;;;;;;;;;4957392;29;20471;-75
2024/02/05 09:39:17;;;;;;;1.27;1.20;;;;;;;;;;4956669;29;20464;-75
2024/02/05 09:41:43;;;;;;;2.50;1.60;;;;;;;;;;4958767;28;20484;-75
2024/02/05 09:44:11;;;;;;;1.90;1.40;;;;;;;;;;4958942;29;20432;-75
2024/02/05 09:46:38;;;;;;;3.47;1.60;;;;;;;;;;4959483;29;20406;-76
2024/02/05 09:49:04;;;;;;;4.20;1.70;;;;;;;;;;4980189;28;20435;-76
2024/02/05 09:51:32;;;;;;;5.90;1.60;;;;;;;;;;4978654;28;20429;-75
2024/02/05 09:53:58;;;;;;;2.70;1.20;;;;;;;;;;4975252;29;20440;-77
2024/02/05 09:56:29;;;;;;;6.33;1.40;;;;;;;;;;4971487;29;20423;-76
2024/02/05 09:58:56;;;;;;;2.90;1.53;;;;;;;;;;4966121;29;20456;-76
2024/02/05 10:01:25;;;;;;;3.10;1.30;;;;;;;;;;4965090;29;20417;-75
2024/02/05 10:03:53;;;;;;;6.03;1.20;;;;;;;;;;4963705;28;20440;-75
2024/02/05 10:06:20;;;;;;;2.90;1.90;;;;;;;;;;4964077;28;20405;-75
2024/02/05 10:08:51;;;;;;;2.63;1.60;;;;;;;;;;4964427;29;20421;-76
2024/02/05 10:11:18;;;;;;;3.70;1.60;;;;;;;;;;4964685;29;20409;-76
2024/02/05 10:13:45;;;;;;;2.40;1.40;;;;;;;;;;4964410;29;20412;-75
2024/02/05 10:16:10;;;;;;;6.57;1.27;;;;;;;;;;4963994;29;20427;-75
2024/02/05 10:18:36;;;;;;;3.80;1.20;;;;;;;;;;4962827;28;20528;-76
2024/02/05 10:21:03;;;;;;;4.47;1.40;;;;;;;;;;4965202;29;20412;-75
2024/02/05 10:23:29;;;;;;;3.90;1.93;;;;;;;;;;4963894;28;20778;-74
2024/02/05 10:26:00;;;;;;;2.10;1.40;;;;;;;;;;4960751;29;20494;-77
2024/02/05 10:28:28;;;;;;;3.03;1.93;;;;;;;;;;4959963;28;20416;-76
2024/02/05 10:31:03;;;;;;;1.63;1.40;;;;;;;;;;4959201;29;20971;-75
2024/02/05 10:33:29;;;;;;;6.50;1.70;;;;;;;;;;4959310;29;20415;-75
2024/02/05 10:35:55;;;;;;;2.00;1.50;;;;;;;;;;4959105;29;20420;-76
2024/02/05 10:38:25;;;;;;;3.10;1.80;;;;;;;;;;4958946;29;20409;-75
2024/02/05 10:40:51;;;;;;;3.77;1.60;;;;;;;;;;4958675;29;20468;-75
2024/02/05 10:43:18;;;;;;;8.83;1.80;;;;;;;;;;4959416;28;20496;-76
2024/02/05 10:45:44;;;;;;;3.00;1.50;;;;;;;;;;4958078;28;20494;-75
2024/02/05 10:48:10;;;;;;;2.00;1.50;;;;;;;;;;4957665;29;20424;-77
2024/02/05 10:50:36;;;;;;;4.00;1.63;;;;;;;;;;4957486;29;20417;-76
2024/02/05 10:53:03;;;;;;;8.03;2.20;;;;;;;;;;4957873;29;20412;-77
2024/02/05 10:55:29;;;;;;;4.20;1.87;;;;;;;;;;4957678;29;20432;-76
2024/02/05 10:57:56;;;;;;;6.27;2.13;;;;;;;;;;4957600;29;20913;-76
2024/02/05 11:00:23;;;;;;;4.00;1.50;;;;;;;;;;4973302;28;20460;-76
2024/02/05 11:03:01;;;;;;;6.93;1.83;;;;;;;;;;4973753;29;20419;-75
2024/02/05 11:05:27;;;;;;;7.10;1.70;;;;;;;;;;4966626;29;20835;-75
2024/02/05 11:07:54;;;;;;;4.17;1.40;;;;;;;;;;4959484;29;20467;-75
2024/02/05 11:10:22;;;;;;;5.30;1.73;;;;;;;;;;4957305;28;20904;-77
2024/02/05 11:12:51;;;;;;;4.87;1.80;;;;;;;;;;4961934;28;20416;-75
2024/02/05 11:15:22;;;;;;;4.03;1.33;;;;;;;;;;4961723;29;20527;-76
2024/02/05 11:17:49;;;;;;;2.70;1.70;;;;;;;;;;4962270;29;20413;-76
2024/02/05 11:20:15;;;;;;;2.30;1.67;;;;;;;;;;4961835;29;20475;-75
2024/02/05 11:22:43;;;;;;;6.20;1.80;;;;;;;;;;4965160;29;20507;-75
2024/02/05 11:25:09;;;;;;;3.83;1.97;;;;;;;;;;4963806;29;20463;-76
2024/02/05 11:27:35;;;;;;;6.40;1.93;;;;;;;;;;4963519;29;20417;-76
2024/02/05 11:30:03;;;;;;;2.70;1.33;;;;;;;;;;4956643;28;20417;-76
2024/02/05 11:32:36;;;;;;;3.70;1.97;;;;;;;;;;4956491;28;20543;-76
2024/02/05 11:35:02;;;;;;;2.90;1.77;;;;;;;;;;4957092;29;20515;-77
2024/02/05 11:37:28;;;;;;;5.00;1.73;;;;;;;;;;4956516;29;20503;-77
2024/02/05 11:39:59;;;;;;;8.50;2.57;;;;;;;;;;4956177;29;20544;-76
2024/02/05 11:42:27;;;;;;;5.50;2.10;;;;;;;;;;4956294;28;20897;-76
2024/02/05 11:44:55;;;;;;;6.23;2.60;;;;;;;;;;4956340;28;20432;-76
2024/02/05 11:47:24;;;;;;;6.33;1.90;;;;;;;;;;4956208;29;20928;-76
2024/02/05 11:49:52;;;;;;;2.90;1.80;;;;;;;;;;4956098;29;20432;-76
2024/02/05 11:52:18;;;;;;;3.87;2.00;;;;;;;;;;4959161;29;20476;-75
2024/02/05 11:54:44;;;;;;;6.70;2.00;;;;;;;;;;4959517;29;20437;-76
2024/02/05 11:57:11;;;;;;;4.40;1.87;;;;;;;;;;4956403;29;20421;-77
2024/02/05 11:59:37;;;;;;;6.20;1.90;;;;;;;;;;4964113;28;20471;-75
2024/02/05 12:02:03;;;;;;;4.30;1.60;;;;;;;;;;4958699;29;20797;-75
2024/02/05 12:04:30;;;;;;;9.00;1.67;;;;;;;;;;4965214;29;20427;-76
2024/02/05 12:06:56;;;;;;;6.17;1.97;;;;;;;;;;4968625;29;20530;-76
2024/02/05 12:09:22;;;;;;;17.00;2.30;;;;;;;;;;4971954;29;20413;-76
2024/02/05 12:11:48;;;;;;;5.80;2.23;;;;;;;;;;4978256;29;20485;-75
2024/02/05 12:14:14;;;;;;;8.87;2.13;;;;;;;;;;4989172;23;20511;-73
2024/02/05 12:16:41;;;;;;;8.93;2.17;;;;;;;;;;4973072;28;20416;-73
2024/02/05 12:19:08;;;;;;;9.03;2.27;;;;;;;;;;4973661;28;20451;-74
2024/02/05 12:21:35;;;;;;;4.53;2.10;;;;;;;;;;4973462;28;20467;-74
2024/02/05 12:24:01;;;;;;;6.13;2.30;;;;;;;;;;4973382;28;20447;-74
2024/02/05 12:26:27;;;;;;;8.10;1.90;;;;;;;;;;4972669;28;20411;-74
2024/02/05 12:28:53;;;;;;;3.93;1.83;;;;;;;;;;4972450;28;20473;-75
2024/02/05 12:31:20;;;;;;;5.50;1.97;;;;;;;;;;4972792;28;20415;-75
2024/02/05 12:33:49;;;;;;;4.77;2.83;;;;;;;;;;4972771;28;20464;-75
2024/02/05 12:36:15;;;;;;;5.40;2.30;;;;;;;;;;4972839;28;20720;-75
2024/02/05 12:38:41;;;;;;;10.37;2.80;;;;;;;;;;4972684;28;20419;-75
2024/02/05 12:41:08;;;;;;;3.50;1.97;;;;;;;;;;4973986;28;20899;-74
2024/02/05 12:43:35;;;;;;;6.60;2.60;;;;;;;;;;4976620;28;20416;-75
2024/02/05 12:46:01;;;;;;;3.00;1.80;;;;;;;;;;4976535;28;20431;-74
2024/02/05 12:48:27;;;;;;;4.93;2.43;;;;;;;;;;4976287;28;20486;-75
2024/02/05 12:50:53;;;;;;;5.40;2.20;;;;;;;;;;4976543;28;20426;-75
2024/02/05 12:53:20;;;;;;;6.60;2.33;;;;;;;;;;4977265;28;20473;-76
2024/02/05 12:55:46;;;;;;;5.83;2.20;;;;;;;;;;4977363;28;20962;-75
2024/02/05 12:58:12;;;;;;;6.43;2.17;;;;;;;;;;4976434;28;20915;-75
2024/02/05 13:00:39;;;;;;;14.70;2.27;;;;;;;;;;4975638;28;20459;-75
2024/02/05 13:03:05;;;;;;;10.30;2.30;;;;;;;;;;4976054;28;21054;-75
2024/02/05 13:05:31;;;;;;;9.13;1.83;;;;;;;;;;4975958;28;20439;-75
2024/02/05 13:08:00;;;;;;;5.67;2.13;;;;;;;;;;4976376;28;20885;-75
2024/02/05 13:10:27;;;;;;;5.40;2.10;;;;;;;;;;4976376;28;20415;-76
2024/02/05 13:12:53;;;;;;;6.33;2.60;;;;;;;;;;4976802;28;20895;-76
2024/02/05 13:15:22;;;;;;;7.83;1.97;;;;;;;;;;4974841;28;20518;-75
2024/02/05 13:17:52;;;;;;;5.23;2.30;;;;;;;;;;4976328;28;20419;-75
2024/02/05 13:20:18;;;;;;;3.53;2.00;;;;;;;;;;4975916;28;20920;-75
2024/02/05 13:22:44;;;;;;;3.50;1.80;;;;;;;;;;4976250;28;20432;-75
2024/02/05 13:25:10;;;;;;;4.70;2.23;;;;;;;;;;4975991;28;20432;-75
2024/02/05 13:27:36;;;;;;;8.50;2.47;;;;;;;;;;4975899;28;20423;-76
2024/02/05 13:30:02;;;;;;;5.63;2.03;;;;;;;;;;4975594;28;20412;-75
2024/02/05 13:32:28;;;;;;;3.87;1.93;;;;;;;;;;4975888;28;20405;-75
2024/02/05 13:34:54;;;;;;;5.70;2.00;;;;;;;;;;4975614;28;20476;-76
2024/02/05 13:37:20;;;;;;;15.40;2.40;;;;;;;;;;4975987;28;20408;-75
2024/02/05 13:39:46;;;;;;;3.83;1.70;;;;;;;;;;4975343;28;20466;-75
2024/02/05 13:42:12;;;;;;;7.83;2.13;;;;;;;;;;4975965;28;20416;-75
2024/02/05 13:44:38;;;;;;;10.83;1.83;;;;;;;;;;4975700;28;20428;-76
2024/02/05 13:47:04;;;;;;;5.00;2.17;;;;;;;;;;4976625;28;20412;-76
2024/02/05 13:49:30;;;;;;;6.77;2.13;;;;;;;;;;4976467;28;20411;-76
2024/02/05 13:51:56;;;;;;;9.00;2.27;;;;;;;;;;4975367;28;20415;-75
2024/02/05 13:54:22;;;;;;;9.03;3.03;;;;;;;;;;4974863;28;20454;-75
2024/02/05 13:56:49;;;;;;;35.20;3.77;;;;;;;;;;4975236;28;20954;-75
2024/02/05 13:59:16;;;;;;;9.60;3.10;;;;;;;;;;4975122;28;20571;-75
2024/02/05 14:01:42;;;;;;;7.80;3.10;;;;;;;;;;4975369;28;20896;-75
2024/02/05 14:04:08;;;;;;;8.73;4.03;;;;;;;;;;4975106;28;20733;-75
2024/02/05 14:06:34;;;;;;;15.07;4.20;;;;;;;;;;4975012;28;20431;-75
2024/02/05 14:09:00;;;;;;;18.33;3.93;;;;;;;;;;4974987;28;20845;-75
2024/02/05 14:11:26;;;;;;;10.43;3.70;;;;;;;;;;4975753;28;20414;-75
2024/02/05 14:13:52;;;;;;;16.63;3.53;;;;;;;;;;4974937;28;20412;-74
2024/02/05 14:16:18;;;;;;;10.63;2.53;;;;;;;;;;4974876;28;20510;-75
2024/02/05 14:18:44;;;;;;;14.67;4.10;;;;;;;;;;4974663;28;20471;-75
2024/02/05 14:21:10;;;;;;;18.13;2.90;;;;;;;;;;4975164;28;20416;-75
2024/02/05 14:23:36;;;;;;;15.87;3.50;;;;;;;;;;4975450;28;20404;-75
2024/02/05 14:26:02;;;;;;;17.53;2.80;;;;;;;;;;4975307;28;20504;-74
2024/02/05 14:28:28;;;;;;;7.50;2.90;;;;;;;;;;4975000;28;20498;-75
2024/02/05 14:30:54;;;;;;;8.23;3.60;;;;;;;;;;4975956;28;20440;-74
2024/02/05 14:33:20;;;;;;;12.70;2.63;;;;;;;;;;4976621;28;20408;-75
2024/02/05 14:35:46;;;;;;;15.63;3.27;;;;;;;;;;4975553;28;20427;-75
2024/02/05 14:38:12;;;;;;;15.33;3.40;;;;;;;;;;4979852;28;20770;-75
2024/02/05 14:40:38;;;;;;;9.23;3.33;;;;;;;;;;4977462;28;20471;-75
2024/02/05 14:43:04;;;;;;;11.43;2.97;;;;;;;;;;4979453;28;20778;-75
2024/02/05 14:45:30;;;;;;;12.80;3.33;;;;;;;;;;4976679;28;20439;-74
2024/02/05 14:47:56;;;;;;;10.03;2.90;;;;;;;;;;4974596;28;20412;-75
2024/02/05 14:50:22;;;;;;;10.80;2.73;;;;;;;;;;4974534;28;20420;-74
2024/02/05 14:52:48;;;;;;;6.73;2.23;;;;;;;;;;4974349;28;20422;-75
2024/02/05 14:55:14;;;;;;;14.13;2.73;;;;;;;;;;4974545;28;20854;-74
2024/02/05 14:57:40;;;;;;;11.10;2.80;;;;;;;;;;4974497;28;20471;-74
2024/02/05 15:00:06;;;;;;;12.87;3.60;;;;;;;;;;4973575;28;20455;-74
2024/02/05 15:02:33;;;;;;;12.97;3.37;;;;;;;;;;4974243;28;20814;-74
2024/02/05 15:04:58;;;;;;;9.73;2.87;;;;;;;;;;4972336;28;20471;-75
2024/02/05 15:07:24;;;;;;;8.17;2.33;;;;;;;;;;4974824;28;20455;-75
2024/02/05 15:09:50;;;;;;;16.00;3.10;;;;;;;;;;4975930;28;20416;-75
2024/02/05 15:12:16;;;;;;;8.73;2.83;;;;;;;;;;4975411;28;20419;-75
2024/02/05 15:14:42;;;;;;;10.80;3.17;;;;;;;;;;4975295;28;20784;-76
2024/02/05 15:17:08;;;;;;;5.63;2.40;;;;;;;;;;4975593;28;20416;-76
2024/02/05 15:19:34;;;;;;;6.27;2.20;;;;;;;;;;4973915;28;20459;-76
2024/02/05 15:22:00;;;;;;;13.27;3.13;;;;;;;;;;4974459;28;20412;-76
2024/02/05 15:24:26;;;;;;;7.43;2.13;;;;;;;;;;4974167;28;20431;-75
2024/02/05 15:26:52;;;;;;;8.73;2.10;;;;;;;;;;4974308;28;20520;-76
2024/02/05 15:29:18;;;;;;;6.17;2.30;;;;;;;;;;4972890;28;20412;-76
2024/02/05 15:31:45;;;;;;;4.53;2.03;;;;;;;;;;4974146;28;20412;-76
2024/02/05 15:34:12;;;;;;;6.00;2.40;;;;;;;;;;4974436;28;20459;-76
2024/02/05 15:36:38;;;;;;;4.50;1.80;;;;;;;;;;4974079;28;20412;-75
2024/02/05 15:39:09;;;;;;;4.70;2.47;;;;;;;;;;4974349;28;20863;-75
2024/02/05 15:41:34;;;;;;;4.13;2.43;;;;;;;;;;4974054;28;20474;-76
2024/02/05 15:44:01;;;;;;;5.67;2.40;;;;;;;;;;4973836;28;20490;-75
2024/02/05 15:46:27;;;;;;;4.93;2.10;;;;;;;;;;4974255;28;20414;-76
2024/02/05 15:48:54;;;;;;;3.93;2.60;;;;;;;;;;4973996;28;20494;-75
2024/02/05 15:51:20;;;;;;;3.67;2.20;;;;;;;;;;4975098;28;20408;-76
2024/02/05 15:53:46;;;;;;;7.80;2.20;;;;;;;;;;4974137;28;20408;-75
2024/02/05 15:56:12;;;;;;;7.50;2.53;;;;;;;;;;4974568;28;20416;-75
2024/02/05 15:58:37;;;;;;;15.60;2.53;;;;;;;;;;4973527;28;20494;-76
2024/02/05 16:01:07;;;;;;;6.60;1.80;;;;;;;;;;4973826;28;20466;-75
2024/02/05 16:03:33;;;;;;;6.23;2.10;;;;;;;;;;4973631;28;20420;-76
2024/02/05 16:05:59;;;;;;;10.20;2.47;;;;;;;;;;4973911;28;20435;-76
2024/02/05 16:08:25;;;;;;;3.30;1.80;;;;;;;;;;4973767;28;20427;-75
2024/02/05 16:10:51;;;;;;;5.53;1.90;;;;;;;;;;4972854;28;20899;-75
2024/02/05 16:13:17;;;;;;;5.10;2.30;;;;;;;;;;4973415;28;20880;-76
2024/02/05 16:15:44;;;;;;;7.27;2.60;;;;;;;;;;4973848;28;20850;-75
2024/02/05 16:18:10;;;;;;;5.70;2.40;;;;;;;;;;4976160;28;20454;-75
2024/02/05 16:20:39;;;;;;;5.73;1.90;;;;;;;;;;4977235;28;20459;-75
2024/02/05 16:23:05;;;;;;;6.83;2.37;;;;;;;;;;4977557;28;20498;-75
2024/02/05 16:25:35;;;;;;;4.23;2.63;;;;;;;;;;4976974;28;20517;-75
2024/02/05 16:28:01;;;;;;;3.70;2.33;;;;;;;;;;4976515;28;20427;-74
2024/02/05 16:30:32;;;;;;;8.43;3.03;;;;;;;;;;4977810;28;20424;-74
2024/02/05 16:32:59;;;;;;;5.40;2.40;;;;;;;;;;4978386;28;20408;-75
2024/02/05 16:35:25;;;;;;;10.53;2.30;;;;;;;;;;4978211;28;20813;-73
2024/02/05 16:37:51;;;;;;;4.90;2.10;;;;;;;;;;4977398;28;20494;-75
2024/02/05 16:40:18;;;;;;;4.17;2.37;;;;;;;;;;4977531;28;20452;-74
2024/02/05 16:42:44;;;;;;;2.37;2.00;;;;;;;;;;4977507;28;20931;-74
2024/02/05 16:45:10;;;;;;;6.27;2.47;;;;;;;;;;4977557;28;20435;-74
2024/02/05 16:47:36;;;;;;;4.47;2.23;;;;;;;;;;4978414;28;20907;-75
2024/02/05 16:50:03;;;;;;;5.30;2.60;;;;;;;;;;4977378;28;20411;-75
2024/02/05 16:52:29;;;;;;;5.90;2.30;;;;;;;;;;4977591;28;20415;-75
2024/02/05 16:54:55;;;;;;;9.00;2.67;;;;;;;;;;4977051;28;20436;-74
2024/02/05 16:57:21;;;;;;;7.57;2.47;;;;;;;;;;4976951;28;20434;-75
2024/02/05 16:59:51;;;;;;;7.13;2.10;;;;;;;;;;4976348;28;20455;-74
2024/02/05 17:02:17;;;;;;;7.83;3.60;;;;;;;;;;4976906;28;20745;-75
2024/02/05 17:04:43;;;;;;;8.50;2.50;;;;;;;;;;4974997;28;20526;-75
2024/02/05 17:07:11;;;;;;;4.57;2.70;;;;;;;;;;4976348;28;20458;-75
2024/02/05 17:09:37;;;;;;;4.90;2.07;;;;;;;;;;4975958;28;20439;-74
2024/02/05 17:12:03;;;;;;;5.00;2.50;;;;;;;;;;4976811;28;20424;-75
2024/02/05 17:14:30;;;;;;;3.90;2.33;;;;;;;;;;4977178;28;20466;-75
2024/02/05 17:16:56;;;;;;;10.40;2.20;;;;;;;;;;4977046;28;20503;-75
2024/02/05 17:19:22;;;;;;;3.13;2.00;;;;;;;;;;4975941;28;20555;-75
2024/02/05 17:21:48;;;;;;;4.60;2.23;;;;;;;;;;4975122;28;20506;-75
2024/02/05 17:24:18;;;;;;;7.30;2.40;;;;;;;;;;4976435;28;20842;-75
2024/02/05 17:26:44;;;;;;;6.43;3.00;;;;;;;;;;4975638;28;20412;-75
2024/02/05 17:29:10;;;;;;;5.07;2.60;;;;;;;;;;4975910;28;20416;-74
2024/02/05 17:31:37;;;;;;;10.03;3.00;;;;;;;;;;4975897;28;20443;-75
2024/02/05 17:34:03;;;;;;;5.50;2.60;;;;;;;;;;4976018;28;20411;-74
2024/02/05 17:36:28;;;;;;;5.50;3.07;;;;;;;;;;4975644;28;20408;-75
2024/02/05 17:38:54;;;;;;;7.50;2.80;;;;;;;;;;4975747;28;20411;-75
2024/02/05 17:41:20;;;;;;;4.57;3.03;;;;;;;;;;4974447;28;20776;-75
2024/02/05 17:43:46;;;;;;;4.70;2.90;;;;;;;;;;4975647;28;20873;-75
2024/02/05 17:46:12;;;;;;;7.43;3.73;;;;;;;;;;4975743;28;20420;-75
2024/02/05 17:48:38;;;;;;;14.20;5.13;;;;;;;;;;4975485;28;20408;-74
2024/02/05 17:51:04;;;;;;;12.20;6.70;;;;;;;;;;4975745;28;20451;-76
2024/02/05 17:53:31;;;;;;;13.97;5.50;;;;;;;;;;4974422;28;20475;-73
2024/02/05 17:55:57;;;;;;;10.13;4.50;;;;;;;;;;4975784;28;20926;-75
2024/02/05 17:58:23;;;;;;;7.77;4.33;;;;;;;;;;4975380;28;20917;-75
2024/02/05 18:00:49;;;;;;;9.37;4.00;;;;;;;;;;4975170;28;20505;-75
2024/02/05 18:03:15;;;;;;;6.23;3.70;;;;;;;;;;4975467;28;20412;-75
2024/02/05 18:05:41;;;;;;;7.03;3.80;;;;;;;;;;4973824;28;20436;-75
2024/02/05 18:08:08;;;;;;;5.77;2.90;;;;;;;;;;4975401;28;20415;-75
2024/02/05 18:10:34;;;;;;;11.07;4.30;;;;;;;;;;4974893;28;20420;-74
2024/02/05 18:13:00;;;;;;;7.93;3.40;;;;;;;;;;4975164;28;20423;-75
2024/02/05 18:15:26;;;;;;;7.23;3.70;;;;;;;;;;4987809;23;20619;-75
2024/02/05 18:17:52;;;;;;;4.87;3.03;;;;;;;;;;4955547;29;20495;-75
2024/02/05 18:20:18;;;;;;;8.37;3.90;;;;;;;;;;4955012;29;20494;-76
2024/02/05 18:22:44;;;;;;;5.83;3.10;;;;;;;;;;4953980;29;20507;-77
2024/02/05 18:25:10;;;;;;;5.77;3.47;;;;;;;;;;4955366;28;20460;-76
2024/02/05 18:27:36;;;;;;;5.13;3.40;;;;;;;;;;4955204;29;20780;-76
2024/02/05 18:30:02;;;;;;;7.73;3.83;;;;;;;;;;4955280;28;20503;-76
2024/02/05 18:32:28;;;;;;;5.80;3.63;;;;;;;;;;4955052;29;20854;-76
2024/02/05 18:34:54;;;;;;;7.50;3.67;;;;;;;;;;4955578;28;20440;-77
2024/02/05 18:37:21;;;;;;;9.17;4.37;;;;;;;;;;4955926;29;20495;-76
2024/02/05 18:39:47;;;;;;;8.77;4.60;;;;;;;;;;4954447;28;20456;-76
2024/02/05 18:42:13;;;;;;;8.33;4.33;;;;;;;;;;4955024;29;20908;-76
2024/02/05 18:44:39;;;;;;;6.93;4.70;;;;;;;;;;4956020;28;20844;-76
2024/02/05 18:47:05;;;;;;;9.73;5.37;;;;;;;;;;4968451;29;20436;-76
2024/02/05 18:49:31;;;;;;;9.13;5.73;;;;;;;;;;4955843;29;20413;-76
2024/02/05 18:52:01;;;;;;;10.20;5.70;;;;;;;;;;4955093;29;20416;-76
2024/02/05 18:54:29;;;;;;;10.33;5.30;;;;;;;;;;4955777;28;20405;-76
2024/02/05 18:56:55;;;;;;;9.80;6.20;;;;;;;;;;4954821;29;20428;-76
2024/02/05 18:59:21;;;;;;;12.87;5.93;;;;;;;;;;4963517;28;20863;-76
2024/02/05 19:01:47;;;;;;;14.90;5.50;;;;;;;;;;4954900;28;20420;-71
2024/02/05 19:04:13;;;;;;;8.53;4.83;;;;;;;;;;4943412;29;20874;-75
2024/02/05 19:06:39;;;;;;;9.53;5.60;;;;;;;;;;4936354;29;20445;-76
2024/02/05 19:09:05;;;;;;;12.10;6.40;;;;;;;;;;4935738;29;20417;-75
2024/02/05 19:11:33;;;;;;;10.47;6.70;;;;;;;;;;4941183;29;20417;-75
2024/02/05 19:14:01;;;;;;;9.00;5.50;;;;;;;;;;4933926;29;20781;-76
2024/02/05 19:16:27;;;;;;;12.10;6.67;;;;;;;;;;4918044;29;20501;-76
2024/02/05 19:18:56;;;;;;;11.30;5.90;;;;;;;;;;4935123;29;20465;-76
2024/02/05 19:21:23;;;;;;;10.53;6.10;;;;;;;;;;4932463;29;20524;-76
2024/02/05 19:23:49;;;;;;;12.30;5.90;;;;;;;;;;4933946;29;20807;-76
2024/02/05 19:26:16;;;;;;;11.50;5.97;;;;;;;;;;4935018;29;20437;-76
2024/02/05 19:28:42;;;;;;;10.33;5.50;;;;;;;;;;4934889;29;20414;-76
2024/02/05 19:31:08;;;;;;;9.67;6.13;;;;;;;;;;4934916;29;20815;-75
2024/02/05 19:33:34;;;;;;;16.63;6.63;;;;;;;;;;4933612;29;20417;-76
2024/02/05 19:36:01;;;;;;;22.43;7.90;;;;;;;;;;4933389;29;20503;-76
2024/02/05 19:38:26;;;;;;;21.23;7.07;;;;;;;;;;4934760;29;20418;-76
2024/02/05 19:40:52;;;;;;;12.47;6.40;;;;;;;;;;4934178;29;20468;-76
2024/02/05 19:43:18;;;;;;;16.03;7.33;;;;;;;;;;4933858;29;20458;-76
2024/02/05 19:45:44;;;;;;;17.07;7.07;;;;;;;;;;4933902;29;20429;-76
2024/02/05 19:48:10;;;;;;;16.43;7.57;;;;;;;;;;4934124;29;20494;-75
2024/02/05 19:50:36;;;;;;;16.93;6.70;;;;;;;;;;4932893;29;20425;-75
2024/02/05 19:53:03;;;;;;;15.50;7.67;;;;;;;;;;4933844;29;20418;-76
2024/02/05 19:55:30;;;;;;;17.93;7.50;;;;;;;;;;4935747;29;20531;-76
2024/02/05 19:57:56;;;;;;;16.17;7.17;;;;;;;;;;4952515;28;20784;-76
2024/02/05 20:00:22;;;;;;;20.40;8.23;;;;;;;;;;4952636;28;20464;-76
2024/02/05 20:02:48;;;;;;;12.53;7.97;;;;;;;;;;4953274;29;20771;-76
2024/02/05 20:05:15;;;;;;;12.03;7.50;;;;;;;;;;4952884;29;20516;-76
2024/02/05 20:07:42;;;;;;;15.57;7.53;;;;;;;;;;4951890;28;20421;-76
2024/02/05 20:10:10;;;;;;;17.23;7.47;;;;;;;;;;4952659;28;20415;-75
2024/02/05 20:12:36;;;;;;;13.93;6.73;;;;;;;;;;4953075;28;20592;-75
2024/02/05 20:15:02;;;;;;;19.13;8.73;;;;;;;;;;4952977;28;20487;-75
2024/02/05 20:17:28;;;;;;;14.40;7.73;;;;;;;;;;4951740;29;20845;-75
2024/02/05 20:19:54;;;;;;;15.73;8.17;;;;;;;;;;4951325;28;20488;-76
2024/02/05 20:22:20;;;;;;;23.33;12.33;;;;;;;;;;4953460;28;20409;-75
2024/02/05 20:24:46;;;;;;;20.30;8.10;;;;;;;;;;4953162;29;20437;-76
2024/02/05 20:27:12;;;;;;;25.00;10.03;;;;;;;;;;4954923;29;20499;-75
2024/02/05 20:29:38;;;;;;;24.33;9.27;;;;;;;;;;4954716;29;20463;-75
2024/02/05 20:32:04;;;;;;;24.10;11.20;;;;;;;;;;4954606;29;20420;-75
2024/02/05 20:34:31;;;;;;;19.43;9.73;;;;;;;;;;4953674;28;20964;-75
2024/02/05 20:36:57;;;;;;;14.60;7.70;;;;;;;;;;4956736;28;20492;-76